sensor_id;sensor_type;location;lat;lon;timestamp;pressure;altitude;pressure_sealevel;temperature;humidity
71476;BME280;59286;59.274;17.974;2023-02-15T00:00:53;102518.44;;;2.54;91.70
71476;BME280;59286;59.274;17.974;2023-02-15T00:03:20;102518.44;;;2.54;91.81
71476;BME280;59286;59.274;17.974;2023-02-15T00:05:46;102506.50;;;2.53;91.86
71476;BME280;59286;59.274;17.974;2023-02-15T00:08:12;102515.69;;;2.55;91.78
71476;BME280;59286;59.274;17.974;2023-02-15T00:10:37;102511.69;;;2.59;91.71
71476;BME280;59286;59.274;17.974;2023-02-15T00:13:02;102513.50;;;2.59;91.93
71476;BME280;59286;59.274;17.974;2023-02-15T00:15:28;102505.75;;;2.59;91.72
71476;BME280;59286;59.274;17.974;2023-02-15T00:17:53;102500.16;;;2.62;91.34
71476;BME280;59286;59.274;17.974;2023-02-15T00:20:18;102502.13;;;2.60;91.34
71476;BME280;59286;59.274;17.974;2023-02-15T00:22:44;102495.59;;;2.64;91.05
71476;BME280;59286;59.274;17.974;2023-02-15T00:25:09;102493.81;;;2.64;91.54
71476;BME280;59286;59.274;17.974;2023-02-15T00:27:35;102487.00;;;2.63;91.13
71476;BME280;59286;59.274;17.974;2023-02-15T00:30:00;102487.06;;;2.70;90.85
71476;BME280;59286;59.274;17.974;2023-02-15T00:32:25;102492.44;;;2.68;91.12
71476;BME280;59286;59.274;17.974;2023-02-15T00:34:51;102491.00;;;2.66;91.26
71476;BME280;59286;59.274;17.974;2023-02-15T00:37:16;102484.84;;;2.67;91.01
71476;BME280;59286;59.274;17.974;2023-02-15T00:39:41;102481.25;;;2.68;91.08
71476;BME280;59286;59.274;17.974;2023-02-15T00:42:07;102476.69;;;2.70;90.73
71476;BME280;59286;59.274;17.974;2023-02-15T00:44:32;102469.31;;;2.67;91.01
71476;BME280;59286;59.274;17.974;2023-02-15T00:46:57;102474.31;;;2.68;90.44
71476;BME280;59286;59.274;17.974;2023-02-15T00:49:23;102469.13;;;2.68;90.70
71476;BME280;59286;59.274;17.974;2023-02-15T00:51:48;102468.53;;;2.66;90.75
71476;BME280;59286;59.274;17.974;2023-02-15T00:54:13;102471.13;;;2.66;90.90
71476;BME280;59286;59.274;17.974;2023-02-15T00:56:39;102477.66;;;2.69;90.72
71476;BME280;59286;59.274;17.974;2023-02-15T00:59:04;102466.91;;;2.59;90.99
71476;BME280;59286;59.274;17.974;2023-02-15T01:01:29;102487.44;;;2.73;90.48
71476;BME280;59286;59.274;17.974;2023-02-15T01:03:55;102485.47;;;2.75;90.75
71476;BME280;59286;59.274;17.974;2023-02-15T01:06:21;102479.47;;;2.75;90.51
71476;BME280;59286;59.274;17.974;2023-02-15T01:08:46;102477.91;;;2.74;90.43
71476;BME280;59286;59.274;17.974;2023-02-15T01:11:14;102476.69;;;2.70;90.41
71476;BME280;59286;59.274;17.974;2023-02-15T01:13:40;102469.13;;;2.68;90.70
71476;BME280;59286;59.274;17.974;2023-02-15T01:16:07;102467.91;;;2.64;90.55
71476;BME280;59286;59.274;17.974;2023-02-15T01:18:33;102468.69;;;2.65;90.29
71476;BME280;59286;59.274;17.974;2023-02-15T01:20:59;102469.53;;;2.72;90.39
71476;BME280;59286;59.274;17.974;2023-02-15T01:23:24;102461.56;;;2.73;90.01
71476;BME280;59286;59.274;17.974;2023-02-15T01:25:49;102467.53;;;2.74;89.66
71476;BME280;59286;59.274;17.974;2023-02-15T01:28:14;102452.78;;;2.68;90.42
71476;BME280;59286;59.274;17.974;2023-02-15T01:30:40;102459.56;;;2.69;90.34
71476;BME280;59286;59.274;17.974;2023-02-15T01:33:05;102448.41;;;2.68;90.60
71476;BME280;59286;59.274;17.974;2023-02-15T01:35:31;102447.81;;;2.66;90.40
71476;BME280;59286;59.274;17.974;2023-02-15T01:37:56;102452.63;;;2.76;90.40
71476;BME280;59286;59.274;17.974;2023-02-15T01:40:22;102446.41;;;2.70;89.78
71476;BME280;59286;59.274;17.974;2023-02-15T01:42:55;102435.84;;;2.65;90.17
71476;BME280;59286;59.274;17.974;2023-02-15T01:45:30;102434.88;;;2.73;90.02
71476;BME280;59286;59.274;17.974;2023-02-15T01:48:20;102440.44;;;2.70;90.34
71476;BME280;59286;59.274;17.974;2023-02-15T01:50:53;102441.84;;;2.72;90.36
71476;BME280;59286;59.274;17.974;2023-02-15T01:53:30;102433.66;;;2.69;90.53
71476;BME280;59286;59.274;17.974;2023-02-15T01:55:59;102424.13;;;2.63;90.49
71476;BME280;59286;59.274;17.974;2023-02-15T01:58:28;102432.69;;;2.70;90.62
71476;BME280;59286;59.274;17.974;2023-02-15T02:00:56;102423.50;;;2.67;90.71
71476;BME280;59286;59.274;17.974;2023-02-15T02:04:11;102414.16;;;2.73;90.52
71476;BME280;59286;59.274;17.974;2023-02-15T02:06:17;102403.00;;;2.66;90.65
71476;BME280;59286;59.274;17.974;2023-02-15T02:08:43;102419.75;;;2.70;90.48
71476;BME280;59286;59.274;17.974;2023-02-15T02:11:14;102411.75;;;2.65;90.66
71476;BME280;59286;59.274;17.974;2023-02-15T02:13:42;102392.47;;;2.61;90.57
71476;BME280;59286;59.274;17.974;2023-02-15T02:16:13;102408.38;;;2.71;90.63
71476;BME280;59286;59.274;17.974;2023-02-15T02:18:48;102405.59;;;2.72;90.62
71476;BME280;59286;59.274;17.974;2023-02-15T02:30:14;102397.81;;;2.72;90.32
71476;BME280;59286;59.274;17.974;2023-02-15T02:38:42;102391.47;;;2.75;90.23
71476;BME280;59286;59.274;17.974;2023-02-15T02:41:12;102385.69;;;2.73;90.31
71476;BME280;59286;59.274;17.974;2023-02-15T02:43:49;102374.13;;;2.69;90.43
71476;BME280;59286;59.274;17.974;2023-02-15T02:46:28;102364.00;;;2.61;89.78
71476;BME280;59286;59.274;17.974;2023-02-15T02:48:56;102373.94;;;2.64;90.11
71476;BME280;59286;59.274;17.974;2023-02-15T02:51:22;102376.72;;;2.69;90.02
71476;BME280;59286;59.274;17.974;2023-02-15T02:53:52;102365.75;;;2.67;90.00
71476;BME280;59286;59.274;17.974;2023-02-15T02:56:56;102363.97;;;2.67;89.77
71476;BME280;59286;59.274;17.974;2023-02-15T02:59:19;102361.19;;;2.69;89.92
71476;BME280;59286;59.274;17.974;2023-02-15T03:01:51;102367.38;;;2.68;89.58
71476;BME280;59286;59.274;17.974;2023-02-15T03:04:23;102365.97;;;2.65;89.43
71476;BME280;59286;59.274;17.974;2023-02-15T03:06:57;102369.97;;;2.68;89.48
71476;BME280;59286;59.274;17.974;2023-02-15T03:09:30;102358.59;;;2.69;89.55
71476;BME280;59286;59.274;17.974;2023-02-15T03:12:00;102354.00;;;2.71;88.86
71476;BME280;59286;59.274;17.974;2023-02-15T03:14:27;102360.97;;;2.70;89.30
71476;BME280;59286;59.274;17.974;2023-02-15T03:16:53;102358.38;;;2.70;89.11
71476;BME280;59286;59.274;17.974;2023-02-15T03:19:31;102355.63;;;2.72;89.21
71476;BME280;59286;59.274;17.974;2023-02-15T03:22:06;102354.25;;;2.76;88.74
71476;BME280;59286;59.274;17.974;2023-02-15T03:24:58;102342.88;;;2.64;89.02
71476;BME280;59286;59.274;17.974;2023-02-15T03:27:28;102354.00;;;2.71;89.08
71476;BME280;59286;59.274;17.974;2023-02-15T03:29:58;102355.63;;;2.72;89.03
71476;BME280;59286;59.274;17.974;2023-02-15T03:32:26;102353.03;;;2.72;89.17
71476;BME280;59286;59.274;17.974;2023-02-15T03:34:53;102350.84;;;2.75;88.69
71476;BME280;59286;59.274;17.974;2023-02-15T03:37:47;102340.88;;;2.72;88.52
71476;BME280;59286;59.274;17.974;2023-02-15T03:40:36;102339.88;;;2.73;88.61
71476;BME280;59286;59.274;17.974;2023-02-15T03:43:49;102344.44;;;2.78;88.92
71476;BME280;59286;59.274;17.974;2023-02-15T03:46:44;102334.91;;;2.72;88.98
71476;BME280;59286;59.274;17.974;2023-02-15T03:52:04;102332.72;;;2.75;88.99
71476;BME280;59286;59.274;17.974;2023-02-15T03:54:33;102326.13;;;2.73;88.95
71476;BME280;59286;59.274;17.974;2023-02-15T03:57:24;102324.56;;;2.72;89.07
71476;BME280;59286;59.274;17.974;2023-02-15T04:00:26;102326.16;;;2.79;88.97
71476;BME280;59286;59.274;17.974;2023-02-15T04:05:44;102305.44;;;2.79;89.43
71476;BME280;59286;59.274;17.974;2023-02-15T04:08:10;102308.22;;;2.78;89.07
71476;BME280;59286;59.274;17.974;2023-02-15T04:10:35;102299.06;;;2.75;89.13
71476;BME280;59286;59.274;17.974;2023-02-15T04:13:30;102297.88;;;2.71;88.74
71476;BME280;59286;59.274;17.974;2023-02-15T04:15:56;102297.84;;;2.78;88.99
71476;BME280;59286;59.274;17.974;2023-02-15T04:18:35;102287.72;;;2.70;88.78
71476;BME280;59286;59.274;17.974;2023-02-15T04:21:21;102295.47;;;2.76;88.70
71476;BME280;59286;59.274;17.974;2023-02-15T04:24:05;102287.09;;;2.81;88.91
71476;BME280;59286;59.274;17.974;2023-02-15T04:26:50;102283.75;;;2.74;89.02
71476;BME280;59286;59.274;17.974;2023-02-15T04:29:18;102274.38;;;2.66;89.07
71476;BME280;59286;59.274;17.974;2023-02-15T04:31:44;102289.91;;;2.73;88.91
71476;BME280;59286;59.274;17.974;2023-02-15T04:34:09;102293.28;;;2.80;89.08
71476;BME280;59286;59.274;17.974;2023-02-15T04:36:36;102284.91;;;2.78;88.67
71476;BME280;59286;59.274;17.974;2023-02-15T04:39:01;102285.72;;;2.78;88.89
71476;BME280;59286;59.274;17.974;2023-02-15T04:41:27;102285.91;;;2.77;88.60
71476;BME280;59286;59.274;17.974;2023-02-15T04:43:52;102272.41;;;2.68;88.92
71476;BME280;59286;59.274;17.974;2023-02-15T04:46:17;102283.91;;;2.72;88.87
71476;BME280;59286;59.274;17.974;2023-02-15T04:48:43;102289.09;;;2.79;88.85
71476;BME280;59286;59.274;17.974;2023-02-15T04:51:09;102274.38;;;2.73;88.73
71476;BME280;59286;59.274;17.974;2023-02-15T04:53:34;102281.16;;;2.74;88.52
71476;BME280;59286;59.274;17.974;2023-02-15T04:56:00;102276.16;;;2.79;88.42
71476;BME280;59286;59.274;17.974;2023-02-15T04:58:25;102272.97;;;2.77;88.67
71476;BME280;59286;59.274;17.974;2023-02-15T05:00:50;102267.22;;;2.68;88.68
71476;BME280;59286;59.274;17.974;2023-02-15T05:03:16;102263.63;;;2.69;88.93
71476;BME280;59286;59.274;17.974;2023-02-15T05:05:42;102264.03;;;2.79;88.48
71476;BME280;59286;59.274;17.974;2023-02-15T05:08:07;102267.00;;;2.83;88.46
71476;BME280;59286;59.274;17.974;2023-02-15T05:10:32;102260.22;;;2.82;88.54
71476;BME280;59286;59.274;17.974;2023-02-15T05:12:58;102261.03;;;2.76;89.05
71476;BME280;59286;59.274;17.974;2023-02-15T05:15:23;102261.59;;;2.78;88.59
71476;BME280;59286;59.274;17.974;2023-02-15T05:17:49;102257.25;;;2.72;88.76
71476;BME280;59286;59.274;17.974;2023-02-15T05:20:14;102259.44;;;2.75;88.85
71476;BME280;59286;59.274;17.974;2023-02-15T05:22:40;102264.81;;;2.73;88.63
71476;BME280;59286;59.274;17.974;2023-02-15T05:25:06;102249.69;;;2.64;88.55
71476;BME280;59286;59.274;17.974;2023-02-15T05:27:50;102261.22;;;2.81;88.27
71476;BME280;59286;59.274;17.974;2023-02-15T05:30:34;102254.84;;;2.77;88.16
71476;BME280;59286;59.274;17.974;2023-02-15T05:32:59;102243.09;;;2.74;87.97
71476;BME280;59286;59.274;17.974;2023-02-15T05:35:25;102252.84;;;2.85;88.06
71476;BME280;59286;59.274;17.974;2023-02-15T05:37:50;102254.81;;;2.83;87.93
71476;BME280;59286;59.274;17.974;2023-02-15T05:40:15;102251.25;;;2.84;87.72
71476;BME280;59286;59.274;17.974;2023-02-15T05:42:41;102247.66;;;2.85;88.05
71476;BME280;59286;59.274;17.974;2023-02-15T05:45:06;102259.00;;;2.91;88.15
71476;BME280;59286;59.274;17.974;2023-02-15T05:47:32;102244.47;;;2.83;87.71
71476;BME280;59286;59.274;17.974;2023-02-15T05:49:57;102250.25;;;2.79;87.88
71476;BME280;59286;59.274;17.974;2023-02-15T05:52:22;102242.50;;;2.79;88.16
71476;BME280;59286;59.274;17.974;2023-02-15T05:54:48;102238.13;;;2.79;87.70
71476;BME280;59286;59.274;17.974;2023-02-15T05:57:13;102244.47;;;2.90;87.63
71476;BME280;59286;59.274;17.974;2023-02-15T05:59:39;102229.53;;;2.85;87.32
71476;BME280;59286;59.274;17.974;2023-02-15T06:02:04;102243.66;;;2.96;86.93
71476;BME280;59286;59.274;17.974;2023-02-15T06:04:31;102237.28;;;2.92;87.13
71476;BME280;59286;59.274;17.974;2023-02-15T06:06:56;102245.28;;;2.90;87.18
71476;BME280;59286;59.274;17.974;2023-02-15T06:09:22;102239.28;;;2.90;87.12
71476;BME280;59286;59.274;17.974;2023-02-15T06:11:47;102239.69;;;2.93;87.24
71476;BME280;59286;59.274;17.974;2023-02-15T06:14:12;102246.03;;;2.97;86.89
71476;BME280;59286;59.274;17.974;2023-02-15T06:16:37;102219.97;;;2.92;86.57
71476;BME280;59286;59.274;17.974;2023-02-15T06:19:03;102234.06;;;3.03;87.00
71476;BME280;59286;59.274;17.974;2023-02-15T06:21:30;102233.66;;;3.06;86.61
71476;BME280;59286;59.274;17.974;2023-02-15T06:23:55;102224.13;;;3.00;86.27
71476;BME280;59286;59.274;17.974;2023-02-15T06:26:21;102232.28;;;2.97;86.81
71476;BME280;59286;59.274;17.974;2023-02-15T06:28:46;102224.53;;;2.97;86.80
71476;BME280;59286;59.274;17.974;2023-02-15T06:31:11;102217.75;;;2.96;86.75
71476;BME280;59286;59.274;17.974;2023-02-15T06:33:37;102221.75;;;2.92;86.97
71476;BME280;59286;59.274;17.974;2023-02-15T06:36:03;102220.75;;;2.93;87.20
71476;BME280;59286;59.274;17.974;2023-02-15T06:38:29;102230.50;;;2.91;87.18
71476;BME280;59286;59.274;17.974;2023-02-15T06:40:54;102198.69;;;2.77;87.31
71476;BME280;59286;59.274;17.974;2023-02-15T06:43:19;102217.78;;;2.89;87.38
71476;BME280;59286;59.274;17.974;2023-02-15T06:45:45;102214.59;;;2.87;87.17
71476;BME280;59286;59.274;17.974;2023-02-15T06:48:10;102209.81;;;2.78;87.34
71476;BME280;59286;59.274;17.974;2023-02-15T06:50:36;102219.38;;;2.84;87.38
71476;BME280;59286;59.274;17.974;2023-02-15T06:53:01;102211.00;;;2.82;87.42
71476;BME280;59286;59.274;17.974;2023-02-15T06:55:27;102215.22;;;2.83;87.49
71476;BME280;59286;59.274;17.974;2023-02-15T06:57:52;102222.19;;;2.82;87.57
71476;BME280;59286;59.274;17.974;2023-02-15T07:00:18;102219.41;;;2.77;87.69
71476;BME280;59286;59.274;17.974;2023-02-15T07:02:43;102212.06;;;2.68;87.76
71476;BME280;59286;59.274;17.974;2023-02-15T07:05:09;102223.38;;;2.80;87.60
71476;BME280;59286;59.274;17.974;2023-02-15T07:07:34;102225.31;;;2.91;87.32
71476;BME280;59286;59.274;17.974;2023-02-15T07:10:00;102212.63;;;2.83;87.38
71476;BME280;59286;59.274;17.974;2023-02-15T07:12:25;102230.16;;;2.81;87.69
71476;BME280;59286;59.274;17.974;2023-02-15T07:15:07;102224.97;;;2.81;87.53
71476;BME280;59286;59.274;17.974;2023-02-15T07:17:33;102230.13;;;2.87;87.76
71476;BME280;59286;59.274;17.974;2023-02-15T07:19:58;102235.34;;;2.81;88.13
71476;BME280;59286;59.274;17.974;2023-02-15T07:22:23;102224.19;;;2.74;88.24
71476;BME280;59286;59.274;17.974;2023-02-15T07:24:48;102224.38;;;2.79;87.98
71476;BME280;59286;59.274;17.974;2023-02-15T07:27:14;102238.13;;;2.79;88.28
71476;BME280;59286;59.274;17.974;2023-02-15T07:29:40;102207.06;;;2.73;88.35
71476;BME280;59286;59.274;17.974;2023-02-15T07:32:05;102223.78;;;2.77;88.18
71476;BME280;59286;59.274;17.974;2023-02-15T07:34:30;102217.41;;;2.73;88.24
71476;BME280;59286;59.274;17.974;2023-02-15T07:36:56;102214.44;;;2.76;88.08
71476;BME280;59286;59.274;17.974;2023-02-15T07:39:22;102204.66;;;2.78;88.07
71476;BME280;59286;59.274;17.974;2023-02-15T07:41:47;102209.81;;;2.84;87.94
71476;BME280;59286;59.274;17.974;2023-02-15T07:44:13;102204.66;;;2.78;87.79
71476;BME280;59286;59.274;17.974;2023-02-15T07:46:39;102207.44;;;2.76;87.95
71476;BME280;59286;59.274;17.974;2023-02-15T07:49:04;102201.50;;;2.76;87.54
71476;BME280;59286;59.274;17.974;2023-02-15T07:51:29;102212.03;;;2.81;87.82
71476;BME280;59286;59.274;17.974;2023-02-15T07:53:55;102210.25;;;2.81;87.53
71476;BME280;59286;59.274;17.974;2023-02-15T07:56:20;102211.81;;;2.82;87.90
71476;BME280;59286;59.274;17.974;2023-02-15T07:58:45;102212.22;;;2.86;87.77
71476;BME280;59286;59.274;17.974;2023-02-15T08:01:18;102205.44;;;2.85;87.54
71476;BME280;59286;59.274;17.974;2023-02-15T08:03:44;102195.91;;;2.79;87.46
71476;BME280;59286;59.274;17.974;2023-02-15T08:06:09;102209.22;;;2.89;87.43
71476;BME280;59286;59.274;17.974;2023-02-15T08:08:36;102210.38;;;2.93;87.12
71476;BME280;59286;59.274;17.974;2023-02-15T08:11:13;102202.22;;;2.89;87.42
71476;BME280;59286;59.274;17.974;2023-02-15T08:19:09;102194.66;;;2.94;86.99
71476;BME280;59286;59.274;17.974;2023-02-15T08:21:37;102183.91;;;2.91;86.92
71476;BME280;59286;59.274;17.974;2023-02-15T08:24:04;102193.44;;;2.97;86.72
71476;BME280;59286;59.274;17.974;2023-02-15T08:26:30;102180.72;;;2.95;86.95
71476;BME280;59286;59.274;17.974;2023-02-15T08:28:56;102186.28;;;2.99;86.67
71476;BME280;59286;59.274;17.974;2023-02-15T08:31:22;102185.28;;;3.00;86.26
71476;BME280;59286;59.274;17.974;2023-02-15T08:33:49;102185.28;;;2.93;86.87
71476;BME280;59286;59.274;17.974;2023-02-15T08:36:17;102177.09;;;2.96;86.91
71476;BME280;59286;59.274;17.974;2023-02-15T08:38:44;102177.53;;;3.00;86.38
71476;BME280;59286;59.274;17.974;2023-02-15T08:43:35;102177.06;;;3.10;86.36
71476;BME280;59286;59.274;17.974;2023-02-15T08:46:00;102160.38;;;2.99;85.85
71476;BME280;59286;59.274;17.974;2023-02-15T08:48:25;102158.00;;;2.97;85.65
71476;BME280;59286;59.274;17.974;2023-02-15T08:50:50;102163.53;;;3.08;85.82
71476;BME280;59286;59.274;17.974;2023-02-15T08:53:16;102169.88;;;3.12;85.33
71476;BME280;59286;59.274;17.974;2023-02-15T08:55:45;102160.31;;;3.12;85.50
71476;BME280;59286;59.274;17.974;2023-02-15T08:58:10;102158.75;;;3.05;85.25
71476;BME280;59286;59.274;17.974;2023-02-15T09:00:35;102164.56;;;3.00;85.47
71476;BME280;59286;59.274;17.974;2023-02-15T09:03:01;102158.38;;;3.01;85.60
71476;BME280;59286;59.274;17.974;2023-02-15T09:05:26;102159.19;;;3.02;85.41
71476;BME280;59286;59.274;17.974;2023-02-15T09:07:51;102155.41;;;2.97;85.50
71476;BME280;59286;59.274;17.974;2023-02-15T09:10:17;102163.94;;;3.05;85.25
71476;BME280;59286;59.274;17.974;2023-02-15T09:12:42;102154.81;;;2.95;85.13
71476;BME280;59286;59.274;17.974;2023-02-15T09:15:08;102160.00;;;2.95;85.38
71476;BME280;59286;59.274;17.974;2023-02-15T09:17:33;102155.56;;;3.03;85.47
71476;BME280;59286;59.274;17.974;2023-02-15T09:19:58;102159.38;;;3.00;85.27
71476;BME280;59286;59.274;17.974;2023-02-15T09:22:24;102152.78;;;3.04;85.30
71476;BME280;59286;59.274;17.974;2023-02-15T09:24:49;102152.38;;;3.07;84.73
71476;BME280;59286;59.274;17.974;2023-02-15T09:27:14;102150.38;;;3.09;84.31
71476;BME280;59286;59.274;17.974;2023-02-15T09:29:40;102146.38;;;3.13;84.42
71476;BME280;59286;59.274;17.974;2023-02-15T09:32:05;102144.03;;;3.05;84.12
71476;BME280;59286;59.274;17.974;2023-02-15T09:34:30;102151.19;;;3.03;84.52
71476;BME280;59286;59.274;17.974;2023-02-15T09:36:56;102151.78;;;3.05;84.48
71476;BME280;59286;59.274;17.974;2023-02-15T09:39:25;102148.19;;;3.06;84.51
71476;BME280;59286;59.274;17.974;2023-02-15T09:47:16;102140.03;;;3.03;84.55
71476;BME280;59286;59.274;17.974;2023-02-15T09:55:33;102132.94;;;3.23;84.39
71476;BME280;59286;59.274;17.974;2023-02-15T10:08:52;102122.41;;;3.24;83.97
71476;BME280;59286;59.274;17.974;2023-02-15T10:12:31;102109.25;;;3.19;83.66
71476;BME280;59286;59.274;17.974;2023-02-15T10:18:11;102103.25;;;3.25;83.76
71476;BME280;59286;59.274;17.974;2023-02-15T10:21:07;102099.84;;;3.31;84.10
71476;BME280;59286;59.274;17.974;2023-02-15T10:26:38;102095.31;;;3.20;83.55
71476;BME280;59286;59.274;17.974;2023-02-15T10:29:09;102094.72;;;3.18;83.84
71476;BME280;59286;59.274;17.974;2023-02-15T10:31:48;102091.31;;;3.24;83.90
71476;BME280;59286;59.274;17.974;2023-02-15T10:34:16;102084.00;;;3.15;84.04
71476;BME280;59286;59.274;17.974;2023-02-15T10:36:47;102083.69;;;3.29;84.14
71476;BME280;59286;59.274;17.974;2023-02-15T10:42:06;102076.28;;;3.39;83.43
71476;BME280;59286;59.274;17.974;2023-02-15T10:45:06;102068.91;;;3.36;83.66
71476;BME280;59286;59.274;17.974;2023-02-15T10:56:21;102060.44;;;3.47;83.37
71476;BME280;59286;59.274;17.974;2023-02-15T10:59:15;102061.25;;;3.48;83.54
71476;BME280;59286;59.274;17.974;2023-02-15T11:04:42;102056.06;;;3.48;83.69
71476;BME280;59286;59.274;17.974;2023-02-15T11:07:23;102052.50;;;3.42;83.36
71476;BME280;59286;59.274;17.974;2023-02-15T11:09:51;102052.88;;;3.46;83.58
71476;BME280;59286;59.274;17.974;2023-02-15T11:12:23;102044.50;;;3.50;83.55
71476;BME280;59286;59.274;17.974;2023-02-15T11:17:55;102045.09;;;3.46;84.10
71476;BME280;59286;59.274;17.974;2023-02-15T11:20:29;102044.16;;;3.40;83.71
71476;BME280;59286;59.274;17.974;2023-02-15T11:22:57;102033.47;;;3.30;83.88
71476;BME280;59286;59.274;17.974;2023-02-15T11:25:27;102044.41;;;3.32;84.19
71476;BME280;59286;59.274;17.974;2023-02-15T11:27:55;102041.03;;;3.32;84.35
71476;BME280;59286;59.274;17.974;2023-02-15T11:30:23;102031.88;;;3.29;84.18
71476;BME280;59286;59.274;17.974;2023-02-15T11:32:52;102039.81;;;3.34;84.02
71476;BME280;59286;59.274;17.974;2023-02-15T11:35:26;102039.19;;;3.39;84.23
71476;BME280;59286;59.274;17.974;2023-02-15T11:38:21;102036.97;;;3.42;83.99
71476;BME280;59286;59.274;17.974;2023-02-15T11:41:03;102017.53;;;3.27;84.16
71476;BME280;59286;59.274;17.974;2023-02-15T11:43:46;102029.06;;;3.31;83.92
71476;BME280;59286;59.274;17.974;2023-02-15T11:46:15;102028.13;;;3.25;84.07
71476;BME280;59286;59.274;17.974;2023-02-15T11:48:41;102021.94;;;3.26;84.66
71476;BME280;59286;59.274;17.974;2023-02-15T11:51:21;102019.72;;;3.30;84.35
71476;BME280;59286;59.274;17.974;2023-02-15T11:53:48;102003.25;;;3.18;84.27
71476;BME280;59286;59.274;17.974;2023-02-15T11:56:20;102019.44;;;3.38;83.89
71476;BME280;59286;59.274;17.974;2023-02-15T11:59:05;102007.97;;;3.27;84.37
71476;BME280;59286;59.274;17.974;2023-02-15T12:01:45;102010.53;;;3.34;84.46
71476;BME280;59286;59.274;17.974;2023-02-15T12:04:38;102008.78;;;3.28;83.76
71476;BME280;59286;59.274;17.974;2023-02-15T12:12:24;101998.91;;;3.12;84.48
71476;BME280;59286;59.274;17.974;2023-02-15T12:14:58;101999.13;;;3.10;84.91
71476;BME280;59286;59.274;17.974;2023-02-15T12:17:26;101995.13;;;3.14;85.05
71476;BME280;59286;59.274;17.974;2023-02-15T12:19:56;101992.31;;;3.16;84.91
71476;BME280;59286;59.274;17.974;2023-02-15T12:22:31;101998.06;;;3.24;84.91
71476;BME280;59286;59.274;17.974;2023-02-15T12:25:03;101987.31;;;3.21;84.69
71476;BME280;59286;59.274;17.974;2023-02-15T12:27:32;101984.50;;;3.22;84.91
71476;BME280;59286;59.274;17.974;2023-02-15T12:30:01;101980.50;;;3.26;85.46
71476;BME280;59286;59.274;17.974;2023-02-15T12:32:33;101982.66;;;3.29;84.82
71476;BME280;59286;59.274;17.974;2023-02-15T12:35:21;101981.81;;;3.35;84.36
71476;BME280;59286;59.274;17.974;2023-02-15T12:38:05;101971.28;;;3.30;84.53
71476;BME280;59286;59.274;17.974;2023-02-15T12:40:32;101966.50;;;3.34;84.24
71476;BME280;59286;59.274;17.974;2023-02-15T12:42:58;101963.72;;;3.29;84.61
71476;BME280;59286;59.274;17.974;2023-02-15T12:45:33;101966.84;;;3.37;84.44
71476;BME280;59286;59.274;17.974;2023-02-15T12:50:38;101966.78;;;3.19;85.31
71476;BME280;59286;59.274;17.974;2023-02-15T12:53:23;101944.13;;;3.15;85.78
71476;BME280;59286;59.274;17.974;2023-02-15T12:56:07;101946.63;;;3.21;85.30
71476;BME280;59286;59.274;17.974;2023-02-15T12:58:34;101950.53;;;3.30;85.31
71476;BME280;59286;59.274;17.974;2023-02-15T13:01:16;101954.59;;;3.26;85.51
71476;BME280;59286;59.274;17.974;2023-02-15T13:04:03;101938.56;;;3.11;85.60
71476;BME280;59286;59.274;17.974;2023-02-15T13:06:32;101946.13;;;3.13;86.43
71476;BME280;59286;59.274;17.974;2023-02-15T13:09:19;101941.53;;;3.15;86.54
71476;BME280;59286;59.274;17.974;2023-02-15T13:11:45;101943.66;;;3.24;86.68
71476;BME280;59286;59.274;17.974;2023-02-15T13:14:43;101937.44;;;3.25;86.43
71476;BME280;59286;59.274;17.974;2023-02-15T13:17:09;101933.47;;;3.23;85.85
71476;BME280;59286;59.274;17.974;2023-02-15T13:19:51;101940.72;;;3.14;86.70
71476;BME280;59286;59.274;17.974;2023-02-15T13:22:21;101937.69;;;3.17;86.36
71476;BME280;59286;59.274;17.974;2023-02-15T13:24:51;101938.28;;;3.19;86.55
71476;BME280;59286;59.274;17.974;2023-02-15T13:27:20;101938.41;;;3.06;86.69
71476;BME280;59286;59.274;17.974;2023-02-15T13:29:50;101934.81;;;3.07;87.36
71476;BME280;59286;59.274;17.974;2023-02-15T13:32:28;101929.19;;;3.10;86.90
71476;BME280;59286;59.274;17.974;2023-02-15T13:34:57;101932.63;;;3.04;87.05
71476;BME280;59286;59.274;17.974;2023-02-15T13:37:34;101933.28;;;3.00;87.68
71476;BME280;59286;59.274;17.974;2023-02-15T13:40:16;101926.91;;;3.02;87.66
71476;BME280;59286;59.274;17.974;2023-02-15T13:43:00;101913.63;;;2.92;87.41
71476;BME280;59286;59.274;17.974;2023-02-15T13:48:38;101918.22;;;2.90;88.43
71476;BME280;59286;59.274;17.974;2023-02-15T13:51:14;101908.28;;;2.87;88.57
71476;BME280;59286;59.274;17.974;2023-02-15T13:54:07;101900.03;;;2.96;88.09
71476;BME280;59286;59.274;17.974;2023-02-15T13:56:53;101898.22;;;2.97;88.11
71476;BME280;59286;59.274;17.974;2023-02-15T14:10:34;101908.28;;;2.87;88.61
71476;BME280;59286;59.274;17.974;2023-02-15T14:15:46;101899.94;;;2.85;88.65
71476;BME280;59286;59.274;17.974;2023-02-15T14:18:22;101887.19;;;2.83;88.55
71476;BME280;59286;59.274;17.974;2023-02-15T14:26:35;101895.97;;;2.82;88.14
71476;BME280;59286;59.274;17.974;2023-02-15T14:29:28;101899.97;;;2.78;88.96
71476;BME280;59286;59.274;17.974;2023-02-15T14:32:04;101887.69;;;2.74;88.58
71476;BME280;59286;59.274;17.974;2023-02-15T14:37:03;101882.91;;;2.71;88.41
71476;BME280;59286;59.274;17.974;2023-02-15T14:39:50;101884.13;;;2.68;88.68
71476;BME280;59286;59.274;17.974;2023-02-15T14:42:48;101884.16;;;2.62;89.24
71476;BME280;59286;59.274;17.974;2023-02-15T14:45:33;101874.56;;;2.69;89.01
71476;BME280;59286;59.274;17.974;2023-02-15T14:55:46;101858.03;;;2.70;88.17
71476;BME280;59286;59.274;17.974;2023-02-15T14:58:12;101856.50;;;2.62;88.54
71476;BME280;59286;59.274;17.974;2023-02-15T15:00:40;101858.50;;;2.60;88.74
71476;BME280;59286;59.274;17.974;2023-02-15T15:03:23;101859.13;;;2.56;88.70